Time;durP1;ratioP1;P1;durP2;ratioP2;P2;SDS_P1;SDS_P2;PMS_P1;PMS_P2;Temp;Humidity;BMP_temperature;BMP_pressure;BME280_temperature;BME280_humidity;BME280_pressure;Samples;Min_cycle;Max_cycle;Signal;HPM_P1;HPM_P2
2023/12/27 00:00:30;;;;;;;;;;;1.00;99.90;;;;;;5028777;28;19936;-82
2023/12/27 00:02:56;;;;;;;;;;;1.00;99.90;;;;;;5025959;28;19931;-83
2023/12/27 00:05:21;;;;;;;;;;;0.90;99.90;;;;;;5024033;28;19986;-84
2023/12/27 00:07:47;;;;;;;;;;;0.90;99.90;;;;;;5024282;28;19991;-83
2023/12/27 00:10:13;;;;;;;;;;;0.90;99.90;;;;;;5025588;28;20003;-84
2023/12/27 00:12:38;;;;;;;;;;;1.00;99.90;;;;;;5023915;28;20359;-82
2023/12/27 00:15:04;;;;;;;;;;;1.00;99.90;;;;;;5022368;28;19917;-83
2023/12/27 00:17:29;;;;;;;;;;;1.00;99.90;;;;;;5022922;28;19916;-84
2023/12/27 00:19:55;;;;;;;;;;;0.90;99.90;;;;;;5023143;28;20000;-83
2023/12/27 00:22:20;;;;;;;;;;;0.80;99.90;;;;;;5023262;28;20581;-81
2023/12/27 00:24:46;;;;;;;;;;;0.80;99.90;;;;;;5023067;28;19913;-82
2023/12/27 00:27:12;;;;;;;;;;;0.80;99.90;;;;;;5026548;28;20143;-80
2023/12/27 00:29:37;;;;;;;;;;;0.80;99.90;;;;;;5023657;28;19924;-81
2023/12/27 00:32:08;;;;;;;;;;;0.90;99.90;;;;;;5026377;28;19935;-81
2023/12/27 00:34:36;;;;;;;;;;;1.00;99.90;;;;;;5022092;28;20542;-81
2023/12/27 00:37:02;;;;;;;;;;;0.90;99.90;;;;;;5022719;28;20463;-80
2023/12/27 00:39:28;;;;;;;;;;;0.80;99.90;;;;;;5020346;28;19913;-81
2023/12/27 00:41:54;;;;;;;;;;;0.80;99.90;;;;;;5022772;28;19917;-82
2023/12/27 00:44:19;;;;;;;;;;;0.80;99.90;;;;;;5020498;28;20622;-81
2023/12/27 00:46:45;;;;;;;;;;;0.70;99.90;;;;;;5022375;28;19917;-81
2023/12/27 00:49:11;;;;;;;;;;;0.70;99.90;;;;;;5023118;28;20572;-82
2023/12/27 00:51:37;;;;;;;;;;;0.60;99.90;;;;;;5022699;28;19913;-83
2023/12/27 00:54:02;;;;;;;;;;;0.60;99.90;;;;;;5021719;28;19913;-83
2023/12/27 00:56:28;;;;;;;;;;;0.50;99.90;;;;;;5037678;28;20387;-80
2023/12/27 00:58:53;;;;;;;;;;;0.40;99.90;;;;;;5020992;28;19923;-82
2023/12/27 01:01:19;;;;;;;;;;;0.50;99.90;;;;;;5023338;28;20008;-82
2023/12/27 01:03:44;;;;;;;;;;;0.50;99.90;;;;;;5023911;28;20012;-83
2023/12/27 01:06:10;;;;;;;;;;;0.50;99.90;;;;;;5025279;28;20040;-86
2023/12/27 01:08:36;;;;;;;;;;;0.50;99.90;;;;;;5020863;28;20019;-83
2023/12/27 01:11:02;;;;;;;;;;;0.50;99.90;;;;;;5021575;28;20660;-84
2023/12/27 01:13:28;;;;;;;;;;;0.50;99.90;;;;;;5022116;28;19917;-84
2023/12/27 01:15:54;;;;;;;;;;;0.40;99.90;;;;;;5021163;28;20458;-83
2023/12/27 01:18:19;;;;;;;;;;;0.40;99.90;;;;;;5022765;28;20062;-85
2023/12/27 01:20:45;;;;;;;;;;;0.30;99.90;;;;;;5025374;28;19912;-84
2023/12/27 01:23:11;;;;;;;;;;;0.40;99.90;;;;;;5021972;28;20040;-83
2023/12/27 01:25:36;;;;;;;;;;;0.40;99.90;;;;;;5023970;28;20090;-83
2023/12/27 01:28:02;;;;;;;;;;;0.40;99.90;;;;;;5022084;28;19917;-86
2023/12/27 01:30:27;;;;;;;;;;;0.40;99.90;;;;;;5025704;28;20525;-86
2023/12/27 01:32:53;;;;;;;;;;;0.40;99.90;;;;;;5027408;28;19935;-83
2023/12/27 01:35:18;;;;;;;;;;;0.50;99.90;;;;;;5021934;28;19913;-83
2023/12/27 01:37:44;;;;;;;;;;;0.40;99.90;;;;;;5027113;28;19952;-82
2023/12/27 01:40:09;;;;;;;;;;;0.40;99.90;;;;;;5023156;28;20396;-83
2023/12/27 01:42:37;;;;;;;;;;;0.40;99.90;;;;;;5023869;28;19913;-84
2023/12/27 01:45:03;;;;;;;;;;;0.30;99.90;;;;;;5020476;28;19917;-81
2023/12/27 01:47:29;;;;;;;;;;;0.30;99.90;;;;;;5035446;28;19927;-81
2023/12/27 01:49:54;;;;;;;;;;;0.30;99.90;;;;;;5022260;28;20403;-81
2023/12/27 01:52:20;;;;;;;;;;;0.40;99.90;;;;;;5021931;28;19913;-81
2023/12/27 01:54:46;;;;;;;;;;;0.30;99.90;;;;;;5023236;28;19920;-80
2023/12/27 01:57:12;;;;;;;;;;;0.30;99.90;;;;;;5018617;28;20804;-83
2023/12/27 01:59:38;;;;;;;;;;;0.40;99.90;;;;;;5023563;28;19961;-82
2023/12/27 02:02:03;;;;;;;;;;;0.40;99.90;;;;;;5023426;28;19920;-81
2023/12/27 02:04:29;;;;;;;;;;;0.40;99.90;;;;;;5028437;28;19975;-80
2023/12/27 02:06:55;;;;;;;;;;;0.40;99.90;;;;;;5025792;28;20358;-80
2023/12/27 02:09:20;;;;;;;;;;;0.40;99.90;;;;;;5031961;28;19926;-81
2023/12/27 02:11:46;;;;;;;;;;;0.50;99.90;;;;;;5027313;28;19917;-81
2023/12/27 02:14:11;;;;;;;;;;;0.50;99.90;;;;;;5025149;28;19913;-81
2023/12/27 02:16:37;;;;;;;;;;;0.40;99.90;;;;;;5025544;28;19912;-80
2023/12/27 02:19:04;;;;;;;;;;;0.50;99.90;;;;;;5025618;28;20208;-81
2023/12/27 02:21:30;;;;;;;;;;;0.50;99.90;;;;;;5024439;28;19974;-80
2023/12/27 02:23:58;;;;;;;;;;;0.50;99.90;;;;;;5025067;28;19913;-81
2023/12/27 02:26:23;;;;;;;;;;;0.40;99.90;;;;;;5027326;28;19924;-80
2023/12/27 02:28:49;;;;;;;;;;;0.30;99.90;;;;;;5027035;28;20785;-81
2023/12/27 02:31:15;;;;;;;;;;;0.50;99.90;;;;;;5025692;28;19999;-80
2023/12/27 02:33:43;;;;;;;;;;;0.50;99.90;;;;;;5024909;28;19951;-81
2023/12/27 02:36:10;;;;;;;;;;;0.50;99.90;;;;;;5020567;28;20003;-81
2023/12/27 02:38:35;;;;;;;;;;;0.30;99.90;;;;;;5025230;28;20000;-80
2023/12/27 02:41:02;;;;;;;;;;;0.20;99.90;;;;;;5026040;28;20012;-81
2023/12/27 02:43:27;;;;;;;;;;;0.20;99.90;;;;;;5025343;28;19912;-80
2023/12/27 02:45:53;;;;;;;;;;;0.20;99.90;;;;;;5024926;28;19917;-82
2023/12/27 02:48:18;;;;;;;;;;;0.40;99.90;;;;;;5025536;28;20095;-83
2023/12/27 02:50:44;;;;;;;;;;;0.20;99.90;;;;;;5027944;28;19943;-81
2023/12/27 02:53:10;;;;;;;;;;;0.20;99.90;;;;;;5028088;28;20073;-82
2023/12/27 02:55:36;;;;;;;;;;;0.20;99.90;;;;;;5025307;28;19913;-81
2023/12/27 02:58:02;;;;;;;;;;;0.20;99.90;;;;;;5018851;28;19924;-83
2023/12/27 03:00:28;;;;;;;;;;;0.20;99.90;;;;;;5024379;28;20343;-83
2023/12/27 03:02:53;;;;;;;;;;;0.20;99.90;;;;;;5025508;28;20555;-82
2023/12/27 03:05:19;;;;;;;;;;;0.30;99.90;;;;;;5025240;28;19974;-83
2023/12/27 03:07:44;;;;;;;;;;;0.40;99.90;;;;;;5025296;28;19916;-82
2023/12/27 03:10:11;;;;;;;;;;;0.20;99.90;;;;;;5024240;28;19913;-84
2023/12/27 03:12:37;;;;;;;;;;;0.30;99.90;;;;;;5027321;28;19951;-82
2023/12/27 03:15:02;;;;;;;;;;;0.30;99.90;;;;;;5025957;28;20003;-82
2023/12/27 03:17:28;;;;;;;;;;;0.50;99.90;;;;;;5024290;28;20008;-82
2023/12/27 03:19:53;;;;;;;;;;;0.50;99.90;;;;;;5024802;28;19956;-82
2023/12/27 03:22:19;;;;;;;;;;;0.50;99.90;;;;;;5024870;28;19924;-83
2023/12/27 03:24:44;;;;;;;;;;;0.30;99.90;;;;;;5023995;28;19917;-82
2023/12/27 03:27:10;;;;;;;;;;;0.10;99.90;;;;;;5022317;28;19917;-82
2023/12/27 03:29:35;;;;;;;;;;;0.10;99.90;;;;;;5022406;28;19921;-81
2023/12/27 03:32:01;;;;;;;;;;;0.00;99.90;;;;;;5023919;28;19917;-83
2023/12/27 03:34:26;;;;;;;;;;;0.10;99.90;;;;;;5023552;28;19927;-83
2023/12/27 03:36:52;;;;;;;;;;;0.30;99.90;;;;;;5024002;28;19913;-82
2023/12/27 03:39:18;;;;;;;;;;;0.40;99.90;;;;;;5023326;28;20523;-82
2023/12/27 03:41:43;;;;;;;;;;;0.40;99.90;;;;;;5023449;28;19913;-82
2023/12/27 03:44:09;;;;;;;;;;;0.30;99.90;;;;;;5023565;28;19913;-82
2023/12/27 03:46:34;;;;;;;;;;;0.20;99.90;;;;;;5023349;28;19949;-82
2023/12/27 03:49:00;;;;;;;;;;;0.20;99.90;;;;;;5023861;28;19944;-80
2023/12/27 03:51:25;;;;;;;;;;;0.10;99.90;;;;;;5023840;28;19913;-82
2023/12/27 03:53:51;;;;;;;;;;;0.20;99.90;;;;;;5022844;28;19920;-81
2023/12/27 03:56:16;;;;;;;;;;;0.20;99.90;;;;;;5023270;28;19913;-82
2023/12/27 03:58:43;;;;;;;;;;;0.10;99.90;;;;;;5016407;28;19963;-83
2023/12/27 04:01:09;;;;;;;;;;;0.10;99.90;;;;;;5022854;28;19970;-82
2023/12/27 04:03:34;;;;;;;;;;;0.20;99.90;;;;;;5022986;28;19917;-83
2023/12/27 04:06:00;;;;;;;;;;;0.20;99.90;;;;;;5023257;28;19917;-82
2023/12/27 04:08:25;;;;;;;;;;;0.20;99.90;;;;;;5022092;28;19955;-83
2023/12/27 04:10:51;;;;;;;;;;;0.10;99.90;;;;;;5023013;28;19963;-81
2023/12/27 04:13:17;;;;;;;;;;;0.00;99.90;;;;;;5024027;28;19947;-82
2023/12/27 04:15:42;;;;;;;;;;;0.20;99.90;;;;;;5023014;28;19956;-82
2023/12/27 04:18:11;;;;;;;;;;;0.20;99.90;;;;;;5026407;28;19919;-81
2023/12/27 04:20:36;;;;;;;;;;;0.20;99.90;;;;;;5023095;28;19936;-82
2023/12/27 04:23:02;;;;;;;;;;;0.20;99.90;;;;;;5022231;28;20443;-80
2023/12/27 04:25:28;;;;;;;;;;;0.20;99.90;;;;;;5022257;28;20024;-81
2023/12/27 04:27:53;;;;;;;;;;;0.20;99.90;;;;;;5037485;28;19916;-81
2023/12/27 04:30:19;;;;;;;;;;;0.10;99.90;;;;;;5022894;28;20008;-80
2023/12/27 04:32:44;;;;;;;;;;;0.00;99.90;;;;;;5022654;28;20029;-80
2023/12/27 04:35:10;;;;;;;;;;;0.20;99.90;;;;;;5023119;28;19920;-80
2023/12/27 04:37:35;;;;;;;;;;;0.10;99.90;;;;;;5020221;28;19960;-80
2023/12/27 04:40:01;;;;;;;;;;;0.20;99.90;;;;;;5022978;28;20015;-80
2023/12/27 04:42:26;;;;;;;;;;;0.20;99.90;;;;;;5021884;28;20004;-80
2023/12/27 04:44:52;;;;;;;;;;;0.20;99.90;;;;;;5022588;28;19965;-81
2023/12/27 04:47:18;;;;;;;;;;;0.10;99.90;;;;;;5022868;28;20059;-82
2023/12/27 04:49:43;;;;;;;;;;;0.20;99.90;;;;;;5022560;28;19920;-82
2023/12/27 04:52:09;;;;;;;;;;;0.20;99.90;;;;;;5022076;28;20748;-82
2023/12/27 04:54:34;;;;;;;;;;;0.20;99.90;;;;;;5021963;28;19925;-82
2023/12/27 04:57:00;;;;;;;;;;;0.10;99.90;;;;;;5019977;28;20028;-81
2023/12/27 04:59:26;;;;;;;;;;;0.20;99.90;;;;;;5022572;28;19968;-81
2023/12/27 05:01:53;;;;;;;;;;;0.20;99.90;;;;;;5022267;28;20404;-82
2023/12/27 05:04:18;;;;;;;;;;;0.30;99.90;;;;;;5022449;28;19939;-82
2023/12/27 05:06:44;;;;;;;;;;;0.20;99.90;;;;;;5022394;28;20471;-82
2023/12/27 05:09:09;;;;;;;;;;;0.20;99.90;;;;;;5022496;28;20414;-80
2023/12/27 05:11:35;;;;;;;;;;;0.10;99.90;;;;;;5022027;28;19920;-81
2023/12/27 05:14:00;;;;;;;;;;;0.10;99.90;;;;;;5021798;28;19935;-80
2023/12/27 05:16:26;;;;;;;;;;;-0.10;99.90;;;;;;5024406;28;20303;-80
2023/12/27 05:18:52;;;;;;;;;;;-0.10;99.90;;;;;;5022404;28;19919;-82
2023/12/27 05:21:18;;;;;;;;;;;0.20;99.90;;;;;;5021788;28;20288;-81
2023/12/27 05:23:43;;;;;;;;;;;0.10;99.90;;;;;;5023261;28;19971;-81
2023/12/27 05:26:09;;;;;;;;;;;0.10;99.90;;;;;;5022115;28;20429;-82
2023/12/27 05:28:35;;;;;;;;;;;0.10;99.90;;;;;;5020112;28;20015;-81
2023/12/27 05:31:00;;;;;;;;;;;0.20;99.90;;;;;;5035529;28;19921;-80
2023/12/27 05:33:26;;;;;;;;;;;-0.10;99.90;;;;;;5022293;28;19924;-80
2023/12/27 05:35:52;;;;;;;;;;;0.10;99.90;;;;;;5022812;28;20092;-82
2023/12/27 05:38:17;;;;;;;;;;;0.00;99.90;;;;;;5022587;28;19913;-81
2023/12/27 05:40:43;;;;;;;;;;;-0.10;99.90;;;;;;5024572;28;19913;-84
2023/12/27 05:43:08;;;;;;;;;;;-0.20;99.90;;;;;;5026485;28;19920;-85
2023/12/27 05:45:34;;;;;;;;;;;-0.20;99.90;;;;;;5024383;28;19920;-82
2023/12/27 05:48:00;;;;;;;;;;;-0.20;99.90;;;;;;5026486;28;19917;-82
2023/12/27 05:50:26;;;;;;;;;;;0.00;99.90;;;;;;5027210;28;19913;-81
2023/12/27 05:52:51;;;;;;;;;;;0.10;99.90;;;;;;5026529;28;19913;-82
2023/12/27 05:55:17;;;;;;;;;;;0.10;99.90;;;;;;5027239;28;20509;-82
2023/12/27 05:57:43;;;;;;;;;;;0.20;99.90;;;;;;5026191;28;19985;-82
2023/12/27 06:00:09;;;;;;;;;;;0.20;99.90;;;;;;5031789;28;19913;-81
2023/12/27 06:02:34;;;;;;;;;;;0.00;99.90;;;;;;5029196;28;19970;-83
2023/12/27 06:05:00;;;;;;;;;;;0.20;99.90;;;;;;5025589;28;19913;-81
2023/12/27 06:07:26;;;;;;;;;;;0.30;99.90;;;;;;5029141;28;19917;-82
2023/12/27 06:09:54;;;;;;;;;;;0.20;99.90;;;;;;5025994;28;19917;-79
2023/12/27 06:12:20;;;;;;;;;;;0.20;99.90;;;;;;5025109;28;19913;-80
2023/12/27 06:14:45;;;;;;;;;;;0.20;99.90;;;;;;5025590;28;19916;-80
2023/12/27 06:17:11;;;;;;;;;;;0.20;99.90;;;;;;5025543;28;20012;-79
2023/12/27 06:19:36;;;;;;;;;;;0.30;99.90;;;;;;5029623;28;19919;-80
2023/12/27 06:22:02;;;;;;;;;;;0.20;99.90;;;;;;5026470;28;19909;-79
2023/12/27 06:24:28;;;;;;;;;;;0.10;99.90;;;;;;5025923;28;19955;-80
2023/12/27 06:26:54;;;;;;;;;;;0.10;99.90;;;;;;5027301;28;20007;-80
2023/12/27 06:29:19;;;;;;;;;;;0.20;99.90;;;;;;5025569;28;20487;-79
2023/12/27 06:31:45;;;;;;;;;;;0.20;99.90;;;;;;5025637;28;20376;-79
2023/12/27 06:34:10;;;;;;;;;;;0.20;99.90;;;;;;5024319;28;19913;-80
2023/12/27 06:36:36;;;;;;;;;;;0.10;99.90;;;;;;5025559;28;19921;-83
2023/12/27 06:39:01;;;;;;;;;;;0.30;99.90;;;;;;5028182;28;19913;-85
2023/12/27 06:41:30;;;;;;;;;;;0.30;99.90;;;;;;5029367;28;19913;-83
2023/12/27 06:43:55;;;;;;;;;;;0.40;99.90;;;;;;5019563;28;20024;-84
2023/12/27 06:46:21;;;;;;;;;;;0.20;99.90;;;;;;5021846;28;20273;-85
2023/12/27 06:48:46;;;;;;;;;;;0.10;99.90;;;;;;5021923;28;20625;-82
2023/12/27 06:51:13;;;;;;;;;;;0.20;99.90;;;;;;5016272;28;19909;-85
2023/12/27 06:53:39;;;;;;;;;;;0.00;99.90;;;;;;5013780;28;20395;-84
2023/12/27 06:56:04;;;;;;;;;;;0.10;99.90;;;;;;5020169;28;19956;-83
2023/12/27 06:58:30;;;;;;;;;;;0.10;99.90;;;;;;5025664;28;20008;-84
2023/12/27 07:00:55;;;;;;;;;;;-0.20;99.90;;;;;;5014047;28;19932;-87
2023/12/27 07:03:21;;;;;;;;;;;-0.30;99.90;;;;;;5021227;28;19917;-86
2023/12/27 07:05:47;;;;;;;;;;;-0.10;99.90;;;;;;5023326;28;20023;-84
2023/12/27 07:08:12;;;;;;;;;;;-0.20;99.90;;;;;;5022970;28;19917;-84
2023/12/27 07:10:38;;;;;;;;;;;-0.10;99.90;;;;;;5014357;28;19948;-84
2023/12/27 07:13:03;;;;;;;;;;;-0.10;99.90;;;;;;5026430;28;19917;-86
2023/12/27 07:15:29;;;;;;;;;;;-0.20;99.90;;;;;;5021221;28;19949;-84
2023/12/27 07:17:54;;;;;;;;;;;-0.10;99.90;;;;;;5036515;28;20691;-85
2023/12/27 07:20:21;;;;;;;;;;;0.00;99.90;;;;;;5023422;28;19912;-83
2023/12/27 07:22:47;;;;;;;;;;;0.10;99.90;;;;;;5024115;28;20247;-83
2023/12/27 07:25:12;;;;;;;;;;;0.10;99.90;;;;;;5021467;28;19919;-82
2023/12/27 07:27:38;;;;;;;;;;;0.10;99.90;;;;;;5019631;28;19921;-83
2023/12/27 07:30:04;;;;;;;;;;;0.10;99.90;;;;;;5022671;28;20284;-85
2023/12/27 07:32:30;;;;;;;;;;;0.10;99.90;;;;;;5021997;28;20402;-81
2023/12/27 07:34:57;;;;;;;;;;;0.30;99.90;;;;;;5022871;28;19909;-81
2023/12/27 07:37:23;;;;;;;;;;;0.30;99.90;;;;;;5015060;28;19955;-81
2023/12/27 07:39:49;;;;;;;;;;;0.20;99.90;;;;;;5013497;28;19952;-81
2023/12/27 07:42:14;;;;;;;;;;;0.40;99.90;;;;;;5024899;28;19966;-81
2023/12/27 07:44:40;;;;;;;;;;;0.40;99.90;;;;;;5019177;28;19963;-81
2023/12/27 07:47:06;;;;;;;;;;;0.40;99.90;;;;;;5024558;28;19913;-82
2023/12/27 07:49:32;;;;;;;;;;;0.20;99.90;;;;;;5023135;28;19913;-81
2023/12/27 07:51:58;;;;;;;;;;;0.30;99.90;;;;;;5024221;28;20284;-81
2023/12/27 07:54:23;;;;;;;;;;;0.30;99.90;;;;;;5024230;28;19908;-81
2023/12/27 07:56:49;;;;;;;;;;;0.30;99.90;;;;;;5020702;28;20352;-81
2023/12/27 07:59:14;;;;;;;;;;;0.50;99.90;;;;;;5024064;28;19935;-82
2023/12/27 08:01:40;;;;;;;;;;;0.90;99.90;;;;;;5023759;28;20003;-81
2023/12/27 08:04:06;;;;;;;;;;;0.90;99.90;;;;;;5024100;28;19963;-80
2023/12/27 08:06:31;;;;;;;;;;;0.90;99.90;;;;;;5023749;28;19909;-81
2023/12/27 08:08:57;;;;;;;;;;;1.40;99.90;;;;;;5023491;28;20388;-81
2023/12/27 08:11:23;;;;;;;;;;;1.90;99.90;;;;;;5023150;28;19909;-82
2023/12/27 08:13:49;;;;;;;;;;;2.10;98.90;;;;;;5023920;28;19909;-81
2023/12/27 08:16:14;;;;;;;;;;;2.20;98.20;;;;;;5021401;28;19913;-82
2023/12/27 08:18:40;;;;;;;;;;;2.20;97.80;;;;;;5022034;28;19909;-81
2023/12/27 08:21:05;;;;;;;;;;;2.40;97.00;;;;;;5023014;28;20021;-82
2023/12/27 08:23:31;;;;;;;;;;;2.40;97.20;;;;;;5023401;28;20000;-81
2023/12/27 08:25:57;;;;;;;;;;;2.60;96.60;;;;;;5023484;28;19919;-81
2023/12/27 08:28:23;;;;;;;;;;;2.70;96.10;;;;;;5023881;28;20402;-80
2023/12/27 08:30:48;;;;;;;;;;;2.70;96.30;;;;;;5023490;28;19909;-82
2023/12/27 08:33:15;;;;;;;;;;;2.90;95.40;;;;;;5023533;28;19923;-81
2023/12/27 08:35:40;;;;;;;;;;;2.80;95.90;;;;;;5023173;28;19909;-81
2023/12/27 08:38:06;;;;;;;;;;;2.90;95.50;;;;;;5027856;28;19966;-81
2023/12/27 08:40:31;;;;;;;;;;;3.00;94.90;;;;;;5022666;28;20015;-81
2023/12/27 08:43:00;;;;;;;;;;;3.10;94.40;;;;;;5023416;28;19916;-81
2023/12/27 08:45:25;;;;;;;;;;;3.30;94.20;;;;;;5023228;28;20690;-80
2023/12/27 08:47:51;;;;;;;;;;;3.50;93.40;;;;;;5038415;28;19963;-81
2023/12/27 08:50:16;;;;;;;;;;;3.50;93.00;;;;;;5022204;28;19956;-81
2023/12/27 08:52:42;;;;;;;;;;;3.70;92.30;;;;;;5022696;28;19909;-81
2023/12/27 08:55:10;;;;;;;;;;;3.70;92.50;;;;;;5023705;28;19909;-80
2023/12/27 08:57:36;;;;;;;;;;;3.70;91.90;;;;;;5023718;28;19909;-81
2023/12/27 09:00:01;;;;;;;;;;;3.70;92.50;;;;;;5023446;28;19916;-80
2023/12/27 09:02:27;;;;;;;;;;;3.70;91.90;;;;;;5023290;28;19931;-81
2023/12/27 09:04:53;;;;;;;;;;;3.90;92.40;;;;;;5023392;28;19909;-81
2023/12/27 09:07:18;;;;;;;;;;;4.10;91.90;;;;;;5019817;28;20384;-82
2023/12/27 09:09:44;;;;;;;;;;;4.10;92.00;;;;;;5022885;28;19960;-81
2023/12/27 09:12:09;;;;;;;;;;;4.20;91.90;;;;;;5020224;28;19915;-81
2023/12/27 09:14:39;;;;;;;;;;;4.30;93.00;;;;;;5022135;28;19909;-81
2023/12/27 09:17:05;;;;;;;;;;;4.40;92.70;;;;;;5022957;28;19999;-82
2023/12/27 09:19:31;;;;;;;;;;;4.40;92.90;;;;;;5023216;28;20390;-82
2023/12/27 09:21:56;;;;;;;;;;;4.70;92.20;;;;;;5022714;28;19909;-80
2023/12/27 09:24:24;;;;;;;;;;;4.90;91.90;;;;;;5022971;28;19936;-80
2023/12/27 09:26:49;;;;;;;;;;;5.00;91.20;;;;;;5022915;28;20384;-82
2023/12/27 09:29:15;;;;;;;;;;;5.10;90.90;;;;;;5022704;28;19913;-82
2023/12/27 09:31:41;;;;;;;;;;;5.20;90.40;;;;;;5022670;28;19916;-83
2023/12/27 09:34:07;;;;;;;;;;;5.40;90.40;;;;;;5020828;28;20321;-80
2023/12/27 09:36:32;;;;;;;;;;;5.50;89.20;;;;;;5020020;28;20763;-81
2023/12/27 09:38:58;;;;;;;;;;;5.70;88.50;;;;;;5021520;28;20024;-83
2023/12/27 09:41:24;;;;;;;;;;;5.80;87.50;;;;;;5017148;28;19913;-82
2023/12/27 09:43:51;;;;;;;;;;;5.70;88.50;;;;;;5022222;28;19916;-82
2023/12/27 09:46:18;;;;;;;;;;;5.70;87.00;;;;;;5021492;28;19917;-82
2023/12/27 09:48:44;;;;;;;;;;;5.80;86.80;;;;;;5027820;28;20000;-81
2023/12/27 09:51:11;;;;;;;;;;;6.00;84.60;;;;;;5021003;28;19919;-84
2023/12/27 09:53:36;;;;;;;;;;;5.90;85.50;;;;;;5021628;28;19960;-84
2023/12/27 09:56:02;;;;;;;;;;;6.00;85.20;;;;;;5022155;28;19955;-81
2023/12/27 09:58:28;;;;;;;;;;;6.10;87.10;;;;;;5021658;28;20379;-82
2023/12/27 10:01:00;;;;;;;;;;;6.10;85.40;;;;;;5021275;28;19966;-85
2023/12/27 10:03:35;;;;;;;;;;;6.10;86.20;;;;;;5023308;28;20343;-93
2023/12/27 10:06:19;;;;;;;;;;;6.20;86.00;;;;;;5024785;28;19912;-93
2023/12/27 10:08:45;;;;;;;;;;;6.30;87.00;;;;;;5020991;28;19921;-88
2023/12/27 10:11:11;;;;;;;;;;;6.50;87.70;;;;;;5017369;28;19970;-87
2023/12/27 10:13:38;;;;;;;;;;;6.40;86.40;;;;;;5022792;28;19963;-85
2023/12/27 10:16:04;;;;;;;;;;;6.30;83.90;;;;;;5022433;28;19916;-84
2023/12/27 10:18:31;;;;;;;;;;;6.20;84.40;;;;;;5026533;28;19916;-86
2023/12/27 10:20:56;;;;;;;;;;;6.40;85.70;;;;;;5021980;28;19909;-81
2023/12/27 10:23:22;;;;;;;;;;;6.40;83.10;;;;;;5021875;28;19920;-84
2023/12/27 10:25:50;;;;;;;;;;;6.60;83.20;;;;;;5022056;28;20039;-82
2023/12/27 10:28:16;;;;;;;;;;;6.60;81.00;;;;;;5025738;28;19940;-81
2023/12/27 10:30:44;;;;;;;;;;;6.70;82.20;;;;;;5024701;28;20698;-83
2023/12/27 10:33:09;;;;;;;;;;;6.70;82.20;;;;;;5020265;28;19939;-84
2023/12/27 10:35:38;;;;;;;;;;;6.80;82.10;;;;;;5025265;28;20039;-81
2023/12/27 10:38:04;;;;;;;;;;;6.90;82.10;;;;;;5024568;28;20412;-81
2023/12/27 10:40:30;;;;;;;;;;;6.90;82.50;;;;;;5025115;28;19917;-83
2023/12/27 10:42:56;;;;;;;;;;;7.00;82.70;;;;;;5025136;28;19936;-84
2023/12/27 10:45:22;;;;;;;;;;;7.10;83.70;;;;;;5025271;28;19948;-85
2023/12/27 10:47:49;;;;;;;;;;;7.10;82.00;;;;;;5025194;28;20614;-81
2023/12/27 10:50:19;;;;;;;;;;;7.30;83.10;;;;;;5024721;28;19909;-86
2023/12/27 10:52:49;;;;;;;;;;;7.20;82.00;;;;;;5024624;28;19917;-85
2023/12/27 10:55:18;;;;;;;;;;;7.30;83.90;;;;;;5025079;28;19920;-83
2023/12/27 10:57:45;;;;;;;;;;;7.30;84.50;;;;;;5025125;28;19908;-86
2023/12/27 11:00:12;;;;;;;;;;;7.30;85.30;;;;;;5024862;28;20388;-84
2023/12/27 11:02:38;;;;;;;;;;;7.50;84.60;;;;;;5024533;28;19925;-81
2023/12/27 11:05:05;;;;;;;;;;;7.40;86.30;;;;;;5024583;28;19936;-83
2023/12/27 11:07:32;;;;;;;;;;;7.40;86.00;;;;;;5024114;28;19925;-86
2023/12/27 11:09:58;;;;;;;;;;;7.60;87.00;;;;;;5024513;28;19920;-86
2023/12/27 11:12:24;;;;;;;;;;;7.60;86.60;;;;;;5022784;28;19913;-85
2023/12/27 11:14:52;;;;;;;;;;;7.70;87.80;;;;;;5024469;28;19923;-84
2023/12/27 11:17:18;;;;;;;;;;;7.70;86.00;;;;;;5025081;28;19913;-84
2023/12/27 11:19:44;;;;;;;;;;;7.90;85.80;;;;;;5025584;28;19915;-85
2023/12/27 11:22:10;;;;;;;;;;;7.90;87.30;;;;;;5024690;28;20037;-83
2023/12/27 11:24:38;;;;;;;;;;;8.00;89.30;;;;;;5024766;28;19920;-87
2023/12/27 11:27:04;;;;;;;;;;;8.10;90.70;;;;;;5025166;28;19921;-85
2023/12/27 11:29:29;;;;;;;;;;;8.10;88.80;;;;;;5025010;28;19928;-88
2023/12/27 11:31:56;;;;;;;;;;;7.90;90.10;;;;;;5025319;28;19930;-88
2023/12/27 11:34:22;;;;;;;;;;;8.40;91.20;;;;;;5022826;28;19959;-84
2023/12/27 11:36:49;;;;;;;;;;;8.20;90.80;;;;;;5025077;28;19964;-87
2023/12/27 11:39:18;;;;;;;;;;;8.10;90.60;;;;;;5024886;28;19919;-90
2023/12/27 11:41:44;;;;;;;;;;;8.20;90.60;;;;;;5025089;28;19913;-84
2023/12/27 11:44:09;;;;;;;;;;;8.20;92.30;;;;;;5025488;28;19928;-86
2023/12/27 11:46:35;;;;;;;;;;;8.20;93.00;;;;;;5025138;28;19917;-92
2023/12/27 11:49:00;;;;;;;;;;;8.10;93.20;;;;;;5039327;28;19928;-85
2023/12/27 11:51:33;;;;;;;;;;;8.00;93.50;;;;;;5024190;28;19912;-86
2023/12/27 11:53:59;;;;;;;;;;;7.90;93.60;;;;;;5024368;28;20799;-85
2023/12/27 11:56:29;;;;;;;;;;;8.00;93.20;;;;;;5024652;28;19917;-91
2023/12/27 11:58:55;;;;;;;;;;;7.90;93.90;;;;;;5025061;28;20292;-87
2023/12/27 12:01:24;;;;;;;;;;;8.10;94.20;;;;;;5023516;28;19921;-89
2023/12/27 12:03:52;;;;;;;;;;;8.50;92.50;;;;;;5024035;28;20007;-88
2023/12/27 12:06:38;;;;;;;;;;;8.20;94.20;;;;;;5037456;28;19932;-85
2023/12/27 12:09:04;;;;;;;;;;;8.30;95.30;;;;;;5006494;28;20662;-85
2023/12/27 12:11:33;;;;;;;;;;;8.70;94.30;;;;;;5019792;28;19919;-85
2023/12/27 12:13:59;;;;;;;;;;;8.90;92.50;;;;;;5023560;28;20377;-85
2023/12/27 12:16:24;;;;;;;;;;;8.70;89.00;;;;;;5023045;28;19916;-86
2023/12/27 12:18:50;;;;;;;;;;;8.60;89.40;;;;;;5023590;28;19909;-85
2023/12/27 12:21:16;;;;;;;;;;;8.80;90.50;;;;;;5023262;28;19913;-85
2023/12/27 12:23:45;;;;;;;;;;;9.00;90.40;;;;;;5023126;28;19920;-86
2023/12/27 12:26:11;;;;;;;;;;;8.90;90.10;;;;;;5023375;28;19913;-86
2023/12/27 12:28:36;;;;;;;;;;;8.90;90.40;;;;;;5022847;28;19937;-86
2023/12/27 12:31:02;;;;;;;;;;;9.00;89.80;;;;;;5025232;28;19908;-86
2023/12/27 12:33:27;;;;;;;;;;;8.80;88.50;;;;;;5026996;28;19913;-86
2023/12/27 12:35:55;;;;;;;;;;;8.50;88.50;;;;;;5026138;28;19917;-85
2023/12/27 12:38:21;;;;;;;;;;;8.40;88.80;;;;;;5023254;28;20651;-88
2023/12/27 12:40:47;;;;;;;;;;;8.50;88.70;;;;;;5017519;28;20639;-86
2023/12/27 12:43:16;;;;;;;;;;;8.30;90.70;;;;;;5023339;28;19913;-86
2023/12/27 12:45:42;;;;;;;;;;;8.20;91.80;;;;;;5022654;28;20012;-84
2023/12/27 12:48:07;;;;;;;;;;;8.30;92.00;;;;;;5023143;28;20007;-87
2023/12/27 12:50:33;;;;;;;;;;;8.30;91.80;;;;;;5036896;28;19914;-85
2023/12/27 12:53:14;;;;;;;;;;;8.20;91.80;;;;;;5022013;28;19913;-84
2023/12/27 12:55:41;;;;;;;;;;;8.10;91.40;;;;;;5022721;28;19917;-86
2023/12/27 12:58:08;;;;;;;;;;;8.10;91.30;;;;;;5019448;28;20406;-84
2023/12/27 13:00:34;;;;;;;;;;;8.20;91.40;;;;;;5022282;28;19916;-86
2023/12/27 13:02:59;;;;;;;;;;;8.60;88.90;;;;;;5022312;28;19983;-86
2023/12/27 13:05:26;;;;;;;;;;;9.00;85.60;;;;;;5022969;28;20004;-87
2023/12/27 13:07:51;;;;;;;;;;;8.90;85.50;;;;;;5022041;28;19912;-85
2023/12/27 13:10:18;;;;;;;;;;;9.20;87.00;;;;;;5020484;28;19912;-86
2023/12/27 13:12:45;;;;;;;;;;;8.90;88.40;;;;;;5017211;28;19913;-86
2023/12/27 13:15:11;;;;;;;;;;;9.10;89.60;;;;;;5022450;28;19917;-86
2023/12/27 13:17:36;;;;;;;;;;;9.00;90.80;;;;;;5022274;28;19920;-86
2023/12/27 13:20:04;;;;;;;;;;;8.90;91.70;;;;;;5020615;28;20291;-85
2023/12/27 13:22:30;;;;;;;;;;;8.50;91.70;;;;;;5022069;28;19978;-85
2023/12/27 13:24:55;;;;;;;;;;;8.50;91.80;;;;;;5016999;28;20471;-85
2023/12/27 13:27:21;;;;;;;;;;;8.80;92.60;;;;;;5021884;28;19917;-85
2023/12/27 13:29:46;;;;;;;;;;;8.60;93.20;;;;;;5022179;28;19924;-86
2023/12/27 13:32:12;;;;;;;;;;;8.60;93.20;;;;;;5022325;28;19967;-85
2023/12/27 13:34:37;;;;;;;;;;;8.90;92.70;;;;;;5017114;28;19913;-85
2023/12/27 13:37:03;;;;;;;;;;;9.20;90.20;;;;;;5022218;28;20585;-86
2023/12/27 13:39:29;;;;;;;;;;;9.20;90.40;;;;;;5021665;28;19999;-84
2023/12/27 13:41:55;;;;;;;;;;;9.10;91.00;;;;;;5022023;28;19923;-84
2023/12/27 13:44:20;;;;;;;;;;;9.10;92.30;;;;;;5021592;28;19961;-86
2023/12/27 13:46:46;;;;;;;;;;;8.90;92.00;;;;;;5021855;28;20370;-84
2023/12/27 13:49:12;;;;;;;;;;;8.70;92.20;;;;;;5021747;28;19917;-83
2023/12/27 13:51:38;;;;;;;;;;;9.10;91.00;;;;;;5022584;28;19956;-86
2023/12/27 13:54:04;;;;;;;;;;;8.90;89.70;;;;;;5022118;28;20418;-85
2023/12/27 13:56:29;;;;;;;;;;;8.80;89.50;;;;;;5022232;28;19913;-83
2023/12/27 13:58:55;;;;;;;;;;;9.00;87.20;;;;;;5022558;28;19913;-82
2023/12/27 14:01:20;;;;;;;;;;;9.20;85.50;;;;;;5024695;28;19927;-82
2023/12/27 14:03:46;;;;;;;;;;;9.00;85.10;;;;;;5025986;28;19917;-81
2023/12/27 14:06:11;;;;;;;;;;;9.10;83.50;;;;;;5025479;28;20303;-81
2023/12/27 14:08:37;;;;;;;;;;;8.90;84.00;;;;;;5025895;28;19956;-82
2023/12/27 14:11:03;;;;;;;;;;;9.10;84.50;;;;;;5019403;28;19928;-80
2023/12/27 14:13:28;;;;;;;;;;;8.90;83.70;;;;;;5025769;28;19909;-83
2023/12/27 14:15:54;;;;;;;;;;;8.90;84.00;;;;;;5030750;28;19916;-83
2023/12/27 14:18:19;;;;;;;;;;;9.00;82.10;;;;;;5022759;28;19924;-82
2023/12/27 14:20:45;;;;;;;;;;;9.00;82.90;;;;;;5024670;28;19999;-82